sensor_id;sensor_type;location;lat;lon;timestamp;pressure;altitude;pressure_sealevel;temperature;humidity
4767;BME280;2397;53.576;9.746;2023-12-07T00:01:59;101759.91;;;0.49;100.00
4767;BME280;2397;53.576;9.746;2023-12-07T00:04:26;101757.03;;;0.56;100.00
4767;BME280;2397;53.576;9.746;2023-12-07T00:06:52;101752.81;;;0.54;100.00
4767;BME280;2397;53.576;9.746;2023-12-07T00:09:19;101753.69;;;0.53;100.00
4767;BME280;2397;53.576;9.746;2023-12-07T00:11:46;101750.31;;;0.51;100.00
4767;BME280;2397;53.576;9.746;2023-12-07T00:14:12;101759.56;;;0.58;100.00
4767;BME280;2397;53.576;9.746;2023-12-07T00:16:39;101764.69;;;0.59;100.00
4767;BME280;2397;53.576;9.746;2023-12-07T00:19:05;101768.28;;;0.55;100.00
4767;BME280;2397;53.576;9.746;2023-12-07T00:21:32;101768.00;;;0.63;100.00
4767;BME280;2397;53.576;9.746;2023-12-07T00:23:58;101764.59;;;0.61;100.00
4767;BME280;2397;53.576;9.746;2023-12-07T00:26:25;101773.44;;;0.57;100.00
4767;BME280;2397;53.576;9.746;2023-12-07T00:28:51;101770.88;;;0.55;100.00
4767;BME280;2397;53.576;9.746;2023-12-07T00:31:18;101768.44;;;0.52;100.00
4767;BME280;2397;53.576;9.746;2023-12-07T00:33:46;101768.38;;;0.54;100.00
4767;BME280;2397;53.576;9.746;2023-12-07T00:36:13;101767.41;;;0.56;100.00
4767;BME280;2397;53.576;9.746;2023-12-07T00:38:40;101772.22;;;0.65;100.00
4767;BME280;2397;53.576;9.746;2023-12-07T00:41:07;101775.53;;;0.69;100.00
4767;BME280;2397;53.576;9.746;2023-12-07T00:43:34;101772.38;;;0.61;100.00
4767;BME280;2397;53.576;9.746;2023-12-07T00:46:00;101768.56;;;0.69;100.00
4767;BME280;2397;53.576;9.746;2023-12-07T00:48:27;101772.22;;;0.65;100.00
4767;BME280;2397;53.576;9.746;2023-12-07T00:50:53;101782.53;;;0.67;100.00
4767;BME280;2397;53.576;9.746;2023-12-07T00:53:20;101777.41;;;0.65;100.00
4767;BME280;2397;53.576;9.746;2023-12-07T00:55:46;101777.47;;;0.64;100.00
4767;BME280;2397;53.576;9.746;2023-12-07T00:58:13;101781.16;;;0.58;100.00
4767;BME280;2397;53.576;9.746;2023-12-07T01:00:40;101782.72;;;0.62;100.00
4767;BME280;2397;53.576;9.746;2023-12-07T01:03:06;101788.88;;;0.60;100.00
4767;BME280;2397;53.576;9.746;2023-12-07T01:05:33;101792.53;;;0.56;100.00
4767;BME280;2397;53.576;9.746;2023-12-07T01:08:00;101799.34;;;0.58;100.00
4767;BME280;2397;53.576;9.746;2023-12-07T01:10:27;101800.13;;;0.60;100.00
4767;BME280;2397;53.576;9.746;2023-12-07T01:12:53;101807.25;;;0.55;100.00
4767;BME280;2397;53.576;9.746;2023-12-07T01:15:20;101802.22;;;0.52;100.00
4767;BME280;2397;53.576;9.746;2023-12-07T01:17:47;101803.03;;;0.53;100.00
4767;BME280;2397;53.576;9.746;2023-12-07T01:20:13;101814.28;;;0.53;100.00
4767;BME280;2397;53.576;9.746;2023-12-07T01:22:40;101808.09;;;0.56;100.00
4767;BME280;2397;53.576;9.746;2023-12-07T01:25:12;101818.56;;;0.54;100.00
4767;BME280;2397;53.576;9.746;2023-12-07T01:27:43;101823.88;;;0.51;100.00
4767;BME280;2397;53.576;9.746;2023-12-07T01:30:10;101817.78;;;0.52;100.00
4767;BME280;2397;53.576;9.746;2023-12-07T01:32:36;101820.31;;;0.54;100.00
4767;BME280;2397;53.576;9.746;2023-12-07T01:35:03;101820.25;;;0.55;100.00
4767;BME280;2397;53.576;9.746;2023-12-07T01:37:30;101824.59;;;0.55;100.00
4767;BME280;2397;53.576;9.746;2023-12-07T01:39:57;101825.19;;;0.61;100.00
4767;BME280;2397;53.576;9.746;2023-12-07T01:42:24;101826.34;;;0.54;100.00
4767;BME280;2397;53.576;9.746;2023-12-07T01:44:51;101827.72;;;0.63;100.00
4767;BME280;2397;53.576;9.746;2023-12-07T01:47:17;101824.28;;;0.62;100.00
4767;BME280;2397;53.576;9.746;2023-12-07T01:49:44;101828.03;;;0.55;100.00
4767;BME280;2397;53.576;9.746;2023-12-07T01:52:12;101828.03;;;0.55;100.00
4767;BME280;2397;53.576;9.746;2023-12-07T01:54:39;101824.53;;;0.56;100.00
4767;BME280;2397;53.576;9.746;2023-12-07T01:57:06;101833.91;;;0.60;100.00
4767;BME280;2397;53.576;9.746;2023-12-07T01:59:33;101828.81;;;0.57;100.00
4767;BME280;2397;53.576;9.746;2023-12-07T02:02:00;101831.47;;;0.56;100.00
4767;BME280;2397;53.576;9.746;2023-12-07T02:04:27;101826.34;;;0.54;100.00
4767;BME280;2397;53.576;9.746;2023-12-07T02:06:57;101834.88;;;0.58;100.00
4767;BME280;2397;53.576;9.746;2023-12-07T02:09:24;101836.63;;;0.57;100.00
4767;BME280;2397;53.576;9.746;2023-12-07T02:11:50;101843.50;;;0.58;100.00
4767;BME280;2397;53.576;9.746;2023-12-07T02:14:17;101836.50;;;0.60;100.00
4767;BME280;2397;53.576;9.746;2023-12-07T02:17:03;101839.41;;;0.74;100.00
4767;BME280;2397;53.576;9.746;2023-12-07T02:19:51;101838.59;;;0.72;100.00
4767;BME280;2397;53.576;9.746;2023-12-07T02:22:25;101841.44;;;0.66;100.00
4767;BME280;2397;53.576;9.746;2023-12-07T02:25:04;101844.94;;;0.65;100.00
4767;BME280;2397;53.576;9.746;2023-12-07T02:27:42;101848.41;;;0.66;100.00
4767;BME280;2397;53.576;9.746;2023-12-07T02:30:10;101846.63;;;0.66;100.00
4767;BME280;2397;53.576;9.746;2023-12-07T02:32:42;101846.78;;;0.63;100.00
4767;BME280;2397;53.576;9.746;2023-12-07T02:35:10;101851.13;;;0.63;100.00
4767;BME280;2397;53.576;9.746;2023-12-07T02:37:46;101847.66;;;0.62;100.00
4767;BME280;2397;53.576;9.746;2023-12-07T02:40:20;101847.38;;;0.70;100.00
4767;BME280;2397;53.576;9.746;2023-12-07T02:42:48;101839.50;;;0.71;100.00
4767;BME280;2397;53.576;9.746;2023-12-07T02:45:15;101836.97;;;0.70;100.00
4767;BME280;2397;53.576;9.746;2023-12-07T02:47:42;101840.66;;;0.64;100.00
4767;BME280;2397;53.576;9.746;2023-12-07T02:50:12;101847.59;;;0.64;100.00
4767;BME280;2397;53.576;9.746;2023-12-07T02:52:40;101852.56;;;0.70;100.00
4767;BME280;2397;53.576;9.746;2023-12-07T02:55:07;101853.41;;;0.70;100.00
4767;BME280;2397;53.576;9.746;2023-12-07T02:57:35;101849.78;;;0.74;100.00
4767;BME280;2397;53.576;9.746;2023-12-07T03:00:03;101854.13;;;0.74;100.00
4767;BME280;2397;53.576;9.746;2023-12-07T03:02:39;101860.88;;;0.78;100.00
4767;BME280;2397;53.576;9.746;2023-12-07T03:05:07;101861.28;;;0.69;100.00
4767;BME280;2397;53.576;9.746;2023-12-07T03:07:34;101862.22;;;0.66;100.00
4767;BME280;2397;53.576;9.746;2023-12-07T03:10:01;101864.47;;;0.75;100.00
4767;BME280;2397;53.576;9.746;2023-12-07T03:12:29;101858.47;;;0.73;100.00
4767;BME280;2397;53.576;9.746;2023-12-07T03:14:56;101863.81;;;0.70;100.00
4767;BME280;2397;53.576;9.746;2023-12-07T03:17:22;101867.19;;;0.72;100.00
4767;BME280;2397;53.576;9.746;2023-12-07T03:19:49;101865.50;;;0.71;100.00
4767;BME280;2397;53.576;9.746;2023-12-07T03:22:15;101858.47;;;0.73;100.00
4767;BME280;2397;53.576;9.746;2023-12-07T03:24:51;101853.09;;;0.78;100.00
4767;BME280;2397;53.576;9.746;2023-12-07T03:27:18;101853.94;;;0.78;100.00
4767;BME280;2397;53.576;9.746;2023-12-07T03:29:45;101855.81;;;0.75;100.00
4767;BME280;2397;53.576;9.746;2023-12-07T03:32:11;101860.03;;;0.77;100.00
4767;BME280;2397;53.576;9.746;2023-12-07T03:34:38;101856.72;;;0.74;100.00
4767;BME280;2397;53.576;9.746;2023-12-07T03:37:05;101861.00;;;0.75;100.00
4767;BME280;2397;53.576;9.746;2023-12-07T03:39:32;101854.47;;;0.86;100.00
4767;BME280;2397;53.576;9.746;2023-12-07T03:41:59;101861.41;;;0.86;100.00
4767;BME280;2397;53.576;9.746;2023-12-07T03:44:25;101865.97;;;0.81;100.00
4767;BME280;2397;53.576;9.746;2023-12-07T03:46:53;101865.38;;;0.74;100.00
4767;BME280;2397;53.576;9.746;2023-12-07T03:49:19;101857.63;;;0.73;100.00
4767;BME280;2397;53.576;9.746;2023-12-07T03:51:46;101862.28;;;0.86;100.00
4767;BME280;2397;53.576;9.746;2023-12-07T03:54:13;101867.66;;;0.82;100.00
4767;BME280;2397;53.576;9.746;2023-12-07T03:56:39;101867.06;;;0.75;100.00
4767;BME280;2397;53.576;9.746;2023-12-07T03:59:09;101872.31;;;0.74;100.00
4767;BME280;2397;53.576;9.746;2023-12-07T04:01:36;101866.88;;;0.80;100.00
4767;BME280;2397;53.576;9.746;2023-12-07T04:04:03;101873.81;;;0.79;100.00
4767;BME280;2397;53.576;9.746;2023-12-07T04:06:31;101875.75;;;0.74;100.00
4767;BME280;2397;53.576;9.746;2023-12-07T04:08:57;101875.63;;;0.77;100.00
4767;BME280;2397;53.576;9.746;2023-12-07T04:11:24;101868.84;;;0.95;100.00
4767;BME280;2397;53.576;9.746;2023-12-07T04:13:50;101865.69;;;1.08;100.00
4767;BME280;2397;53.576;9.746;2023-12-07T04:16:17;101858.59;;;1.12;100.00
4767;BME280;2397;53.576;9.746;2023-12-07T04:18:44;101861.13;;;0.93;100.00
4767;BME280;2397;53.576;9.746;2023-12-07T04:21:10;101865.00;;;0.83;100.00
4767;BME280;2397;53.576;9.746;2023-12-07T04:23:37;101877.75;;;0.89;100.00
4767;BME280;2397;53.576;9.746;2023-12-07T04:26:04;101877.88;;;0.86;100.00
4767;BME280;2397;53.576;9.746;2023-12-07T04:28:30;101881.78;;;0.96;100.00
4767;BME280;2397;53.576;9.746;2023-12-07T04:30:57;101884.69;;;0.89;100.00
4767;BME280;2397;53.576;9.746;2023-12-07T04:33:24;101885.59;;;0.88;100.00
4767;BME280;2397;53.576;9.746;2023-12-07T04:35:50;101887.50;;;1.04;100.00
4767;BME280;2397;53.576;9.746;2023-12-07T04:38:17;101892.78;;;1.03;100.00
4767;BME280;2397;53.576;9.746;2023-12-07T04:40:44;101894.78;;;0.96;100.00
4767;BME280;2397;53.576;9.746;2023-12-07T04:43:10;101894.09;;;0.91;100.00
4767;BME280;2397;53.576;9.746;2023-12-07T04:45:37;101900.09;;;0.93;100.00
4767;BME280;2397;53.576;9.746;2023-12-07T04:48:04;101908.72;;;0.94;100.00
4767;BME280;2397;53.576;9.746;2023-12-07T04:50:32;101905.72;;;1.04;100.00
4767;BME280;2397;53.576;9.746;2023-12-07T04:52:58;101904.38;;;0.94;100.00
4767;BME280;2397;53.576;9.746;2023-12-07T04:55:25;101904.25;;;0.97;100.00
4767;BME280;2397;53.576;9.746;2023-12-07T04:57:53;101908.88;;;0.91;100.00
4767;BME280;2397;53.576;9.746;2023-12-07T05:00:19;101916.78;;;0.88;100.00
4767;BME280;2397;53.576;9.746;2023-12-07T05:02:46;101925.56;;;0.85;100.00
4767;BME280;2397;53.576;9.746;2023-12-07T05:05:14;101923.94;;;0.81;100.00
4767;BME280;2397;53.576;9.746;2023-12-07T05:07:41;101920.59;;;0.79;100.00
4767;BME280;2397;53.576;9.746;2023-12-07T05:10:08;101922.31;;;0.79;100.00
4767;BME280;2397;53.576;9.746;2023-12-07T05:12:35;101916.31;;;0.78;100.00
4767;BME280;2397;53.576;9.746;2023-12-07T05:15:02;101916.03;;;0.84;100.00
4767;BME280;2397;53.576;9.746;2023-12-07T05:17:30;101917.81;;;0.84;100.00
4767;BME280;2397;53.576;9.746;2023-12-07T05:19:57;101918.91;;;0.78;100.00
4767;BME280;2397;53.576;9.746;2023-12-07T05:22:24;101917.81;;;0.84;100.00
4767;BME280;2397;53.576;9.746;2023-12-07T05:24:50;101915.28;;;0.82;100.00
4767;BME280;2397;53.576;9.746;2023-12-07T05:27:17;101916.31;;;0.78;100.00
4767;BME280;2397;53.576;9.746;2023-12-07T05:29:44;101923.94;;;0.81;100.00
4767;BME280;2397;53.576;9.746;2023-12-07T05:32:10;101918.75;;;0.81;100.00
4767;BME280;2397;53.576;9.746;2023-12-07T05:34:37;101921.13;;;0.87;100.00
4767;BME280;2397;53.576;9.746;2023-12-07T05:37:04;101921.91;;;0.89;100.00
4767;BME280;2397;53.576;9.746;2023-12-07T05:39:31;101917.59;;;0.88;100.00
4767;BME280;2397;53.576;9.746;2023-12-07T05:41:57;101908.31;;;1.04;100.00
4767;BME280;2397;53.576;9.746;2023-12-07T05:44:24;101908.84;;;1.12;100.00
4767;BME280;2397;53.576;9.746;2023-12-07T05:46:50;101912.19;;;1.14;100.00
4767;BME280;2397;53.576;9.746;2023-12-07T05:49:17;101923.09;;;1.02;100.00
4767;BME280;2397;53.576;9.746;2023-12-07T05:51:44;101917.50;;;0.91;100.00
4767;BME280;2397;53.576;9.746;2023-12-07T05:54:10;101918.41;;;0.90;100.00
4767;BME280;2397;53.576;9.746;2023-12-07T05:56:37;101917.75;;;0.85;100.00
4767;BME280;2397;53.576;9.746;2023-12-07T05:59:03;101921.06;;;0.89;100.00
4767;BME280;2397;53.576;9.746;2023-12-07T06:01:30;101920.09;;;0.91;100.00
4767;BME280;2397;53.576;9.746;2023-12-07T06:03:57;101909.81;;;0.88;100.00
4767;BME280;2397;53.576;9.746;2023-12-07T06:06:24;101912.47;;;1.08;100.00
4767;BME280;2397;53.576;9.746;2023-12-07T06:08:50;101919.34;;;1.09;100.00
4767;BME280;2397;53.576;9.746;2023-12-07T06:11:17;101917.66;;;1.08;100.00
4767;BME280;2397;53.576;9.746;2023-12-07T06:13:44;101927.16;;;1.09;100.00
4767;BME280;2397;53.576;9.746;2023-12-07T06:16:12;101919.47;;;1.06;100.00
4767;BME280;2397;53.576;9.746;2023-12-07T06:18:39;101929.69;;;1.11;100.00
4767;BME280;2397;53.576;9.746;2023-12-07T06:21:06;101934.84;;;1.12;100.00
4767;BME280;2397;53.576;9.746;2023-12-07T06:23:33;101927.31;;;1.05;100.00
4767;BME280;2397;53.576;9.746;2023-12-07T06:26:02;101929.44;;;0.95;100.00
4767;BME280;2397;53.576;9.746;2023-12-07T06:28:28;101929.56;;;0.92;100.00
4767;BME280;2397;53.576;9.746;2023-12-07T06:30:55;101931.28;;;0.93;100.00
4767;BME280;2397;53.576;9.746;2023-12-07T06:33:24;101941.00;;;0.88;100.00
4767;BME280;2397;53.576;9.746;2023-12-07T06:35:50;101936.72;;;0.87;100.00
4767;BME280;2397;53.576;9.746;2023-12-07T06:38:17;101940.06;;;0.91;100.00
4767;BME280;2397;53.576;9.746;2023-12-07T06:40:47;101943.53;;;0.90;100.00
4767;BME280;2397;53.576;9.746;2023-12-07T06:43:13;101950.50;;;0.89;100.00
4767;BME280;2397;53.576;9.746;2023-12-07T06:45:40;101947.91;;;0.89;100.00
4767;BME280;2397;53.576;9.746;2023-12-07T06:48:07;101944.28;;;0.93;100.00
4767;BME280;2397;53.576;9.746;2023-12-07T06:50:34;101951.28;;;0.91;100.00
4767;BME280;2397;53.576;9.746;2023-12-07T06:53:01;101959.13;;;0.90;100.00
4767;BME280;2397;53.576;9.746;2023-12-07T06:55:28;101950.44;;;0.91;100.00
4767;BME280;2397;53.576;9.746;2023-12-07T06:57:54;101962.03;;;1.04;100.00
4767;BME280;2397;53.576;9.746;2023-12-07T07:00:21;101958.78;;;0.99;100.00
4767;BME280;2397;53.576;9.746;2023-12-07T07:02:49;101959.75;;;0.96;100.00
4767;BME280;2397;53.576;9.746;2023-12-07T07:05:15;101963.06;;;1.00;100.00
4767;BME280;2397;53.576;9.746;2023-12-07T07:07:42;101956.19;;;0.99;100.00
4767;BME280;2397;53.576;9.746;2023-12-07T07:10:09;101955.31;;;0.98;100.00
4767;BME280;2397;53.576;9.746;2023-12-07T07:12:39;101957.94;;;0.98;100.00
4767;BME280;2397;53.576;9.746;2023-12-07T07:15:07;101967.06;;;1.08;100.00
4767;BME280;2397;53.576;9.746;2023-12-07T07:17:34;101968.88;;;1.06;100.00
4767;BME280;2397;53.576;9.746;2023-12-07T07:20:01;101969.59;;;1.10;100.00
4767;BME280;2397;53.576;9.746;2023-12-07T07:22:27;101970.47;;;1.09;100.00
4767;BME280;2397;53.576;9.746;2023-12-07T07:24:54;101967.88;;;1.09;100.00
4767;BME280;2397;53.576;9.746;2023-12-07T07:27:21;101969.81;;;1.25;100.00
4767;BME280;2397;53.576;9.746;2023-12-07T07:29:48;101965.81;;;1.38;100.00
4767;BME280;2397;53.576;9.746;2023-12-07T07:32:14;101968.66;;;1.32;100.00
4767;BME280;2397;53.576;9.746;2023-12-07T07:34:42;101969.81;;;1.25;100.00
4767;BME280;2397;53.576;9.746;2023-12-07T07:37:09;101973.88;;;1.11;100.00
4767;BME280;2397;53.576;9.746;2023-12-07T07:39:35;101975.09;;;1.02;100.00
4767;BME280;2397;53.576;9.746;2023-12-07T07:42:02;101977.88;;;0.98;100.00
4767;BME280;2397;53.576;9.746;2023-12-07T07:44:28;101970.06;;;0.98;100.00
4767;BME280;2397;53.576;9.746;2023-12-07T07:46:55;101976.97;;;0.99;100.00
4767;BME280;2397;53.576;9.746;2023-12-07T07:49:21;101979.63;;;0.97;100.00
4767;BME280;2397;53.576;9.746;2023-12-07T07:51:48;101985.53;;;1.01;100.00
4767;BME280;2397;53.576;9.746;2023-12-07T07:54:15;101989.66;;;1.06;100.00
4767;BME280;2397;53.576;9.746;2023-12-07T07:56:43;101989.59;;;1.08;100.00
4767;BME280;2397;53.576;9.746;2023-12-07T07:59:09;101991.28;;;1.09;100.00
4767;BME280;2397;53.576;9.746;2023-12-07T08:01:37;101986.94;;;1.09;100.00
4767;BME280;2397;53.576;9.746;2023-12-07T08:04:04;101981.13;;;1.24;100.00
4767;BME280;2397;53.576;9.746;2023-12-07T08:06:30;101984.00;;;1.38;100.00
4767;BME280;2397;53.576;9.746;2023-12-07T08:09:02;101990.13;;;1.37;100.00
4767;BME280;2397;53.576;9.746;2023-12-07T08:11:28;101991.28;;;1.30;100.00
4767;BME280;2397;53.576;9.746;2023-12-07T08:13:55;101991.75;;;1.40;100.00
4767;BME280;2397;53.576;9.746;2023-12-07T08:16:22;101993.09;;;1.28;100.00
4767;BME280;2397;53.576;9.746;2023-12-07T08:18:48;102002.84;;;1.23;100.00
4767;BME280;2397;53.576;9.746;2023-12-07T08:21:22;102009.22;;;1.36;100.00
4767;BME280;2397;53.576;9.746;2023-12-07T08:23:56;102006.22;;;1.25;100.00
4767;BME280;2397;53.576;9.746;2023-12-07T08:26:22;102004.84;;;1.17;100.00
4767;BME280;2397;53.576;9.746;2023-12-07T08:28:48;102002.41;;;1.12;100.00
4767;BME280;2397;53.576;9.746;2023-12-07T08:31:16;102006.06;;;1.08;100.00
4767;BME280;2397;53.576;9.746;2023-12-07T08:33:44;102004.16;;;1.12;100.00
4767;BME280;2397;53.576;9.746;2023-12-07T08:36:10;102002.59;;;1.08;100.00
4767;BME280;2397;53.576;9.746;2023-12-07T08:38:37;102007.91;;;1.05;100.00
4767;BME280;2397;53.576;9.746;2023-12-07T08:41:03;102001.63;;;1.10;100.00
4767;BME280;2397;53.576;9.746;2023-12-07T08:43:30;102005.09;;;1.11;100.00
4767;BME280;2397;53.576;9.746;2023-12-07T08:45:57;102011.91;;;1.13;100.00
4767;BME280;2397;53.576;9.746;2023-12-07T08:48:27;102003.88;;;1.19;100.00
4767;BME280;2397;53.576;9.746;2023-12-07T08:50:54;102005.97;;;1.31;100.00
4767;BME280;2397;53.576;9.746;2023-12-07T08:53:21;102003.25;;;1.34;100.00
4767;BME280;2397;53.576;9.746;2023-12-07T08:55:47;102005.06;;;1.32;100.00
4767;BME280;2397;53.576;9.746;2023-12-07T08:58:14;102004.31;;;1.50;100.00
4767;BME280;2397;53.576;9.746;2023-12-07T09:00:40;102004.78;;;1.60;100.00
4767;BME280;2397;53.576;9.746;2023-12-07T09:03:08;102011.09;;;1.54;100.00
4767;BME280;2397;53.576;9.746;2023-12-07T09:05:34;102006.69;;;1.76;100.00
4767;BME280;2397;53.576;9.746;2023-12-07T09:08:01;102010.84;;;2.00;100.00
4767;BME280;2397;53.576;9.746;2023-12-07T09:10:28;102028.41;;;1.95;100.00
4767;BME280;2397;53.576;9.746;2023-12-07T09:12:54;102022.56;;;1.90;100.00
4767;BME280;2397;53.576;9.746;2023-12-07T09:15:21;102019.09;;;1.90;100.00
4767;BME280;2397;53.576;9.746;2023-12-07T09:17:48;102019.91;;;1.72;100.00
4767;BME280;2397;53.576;9.746;2023-12-07T09:20:17;102025.88;;;1.54;100.00
4767;BME280;2397;53.576;9.746;2023-12-07T09:22:45;102024.31;;;1.50;100.00
4767;BME280;2397;53.576;9.746;2023-12-07T09:25:12;102022.47;;;1.52;100.00
4767;BME280;2397;53.576;9.746;2023-12-07T09:27:39;102021.94;;;1.85;100.00
4767;BME280;2397;53.576;9.746;2023-12-07T09:30:07;102028.09;;;1.83;100.00
4767;BME280;2397;53.576;9.746;2023-12-07T09:32:38;102025.41;;;1.84;100.00
4767;BME280;2397;53.576;9.746;2023-12-07T09:35:05;102029.47;;;1.71;100.00
4767;BME280;2397;53.576;9.746;2023-12-07T09:37:41;102033.72;;;1.52;100.00
4767;BME280;2397;53.576;9.746;2023-12-07T09:40:14;102031.63;;;1.40;100.00
4767;BME280;2397;53.576;9.746;2023-12-07T09:42:41;102031.22;;;1.29;100.00
4767;BME280;2397;53.576;9.746;2023-12-07T09:45:09;102029.31;;;1.33;100.00
4767;BME280;2397;53.576;9.746;2023-12-07T09:47:37;102033.31;;;1.41;100.00
4767;BME280;2397;53.576;9.746;2023-12-07T09:50:06;102034.69;;;1.28;100.00
4767;BME280;2397;53.576;9.746;2023-12-07T09:52:33;102037.41;;;1.25;100.00
4767;BME280;2397;53.576;9.746;2023-12-07T09:55:04;102036.66;;;1.23;100.00
4767;BME280;2397;53.576;9.746;2023-12-07T09:57:31;102030.69;;;1.20;100.00
4767;BME280;2397;53.576;9.746;2023-12-07T09:59:58;102025.66;;;1.17;100.00
4767;BME280;2397;53.576;9.746;2023-12-07T10:02:25;102028.00;;;1.23;100.00
4767;BME280;2397;53.576;9.746;2023-12-07T10:05:09;102033.72;;;1.31;100.00
4767;BME280;2397;53.576;9.746;2023-12-07T10:07:48;102034.34;;;1.37;100.00
4767;BME280;2397;53.576;9.746;2023-12-07T10:10:16;102033.38;;;1.40;100.00
4767;BME280;2397;53.576;9.746;2023-12-07T10:12:55;102034.88;;;1.45;100.00
4767;BME280;2397;53.576;9.746;2023-12-07T10:15:23;102042.03;;;1.40;100.00
4767;BME280;2397;53.576;9.746;2023-12-07T10:17:55;102039.16;;;1.46;100.00
4767;BME280;2397;53.576;9.746;2023-12-07T10:20:24;102039.22;;;1.45;100.00
4767;BME280;2397;53.576;9.746;2023-12-07T10:23:02;102037.97;;;1.33;100.00
4767;BME280;2397;53.576;9.746;2023-12-07T10:25:36;102039.91;;;1.28;100.00
4767;BME280;2397;53.576;9.746;2023-12-07T10:28:03;102033.00;;;1.49;100.00
4767;BME280;2397;53.576;9.746;2023-12-07T10:30:37;102033.41;;;1.60;100.00
4767;BME280;2397;53.576;9.746;2023-12-07T10:33:07;102038.06;;;1.52;100.00
4767;BME280;2397;53.576;9.746;2023-12-07T10:35:43;102028.13;;;1.61;100.00
4767;BME280;2397;53.576;9.746;2023-12-07T10:38:10;102022.34;;;1.55;100.00
4767;BME280;2397;53.576;9.746;2023-12-07T10:40:38;102018.59;;;1.62;100.00
4767;BME280;2397;53.576;9.746;2023-12-07T10:43:06;102024.75;;;1.59;100.00
4767;BME280;2397;53.576;9.746;2023-12-07T10:45:35;102024.72;;;1.81;100.00
4767;BME280;2397;53.576;9.746;2023-12-07T10:48:06;102029.97;;;1.79;100.00
4767;BME280;2397;53.576;9.746;2023-12-07T10:50:37;102036.31;;;1.94;100.00
4767;BME280;2397;53.576;9.746;2023-12-07T10:53:13;102032.22;;;1.88;100.00
4767;BME280;2397;53.576;9.746;2023-12-07T10:55:47;102029.78;;;1.84;100.00
4767;BME280;2397;53.576;9.746;2023-12-07T10:58:16;102029.91;;;2.01;100.00
4767;BME280;2397;53.576;9.746;2023-12-07T11:00:44;102032.69;;;2.16;100.00
4767;BME280;2397;53.576;9.746;2023-12-07T11:03:16;102028.00;;;2.24;100.00
4767;BME280;2397;53.576;9.746;2023-12-07T11:05:48;102029.19;;;2.17;100.00
4767;BME280;2397;53.576;9.746;2023-12-07T11:08:30;102032.22;;;1.88;100.00
4767;BME280;2397;53.576;9.746;2023-12-07T11:11:04;102036.47;;;1.69;100.00
4767;BME280;2397;53.576;9.746;2023-12-07T11:13:36;102031.41;;;1.66;100.00
4767;BME280;2397;53.576;9.746;2023-12-07T11:16:04;102023.91;;;1.59;100.00
4767;BME280;2397;53.576;9.746;2023-12-07T11:18:31;102024.88;;;1.56;100.00
4767;BME280;2397;53.576;9.746;2023-12-07T11:20:58;102029.16;;;1.57;100.00
4767;BME280;2397;53.576;9.746;2023-12-07T11:23:27;102029.41;;;1.51;100.00
4767;BME280;2397;53.576;9.746;2023-12-07T11:25:53;102036.06;;;1.58;100.00
4767;BME280;2397;53.576;9.746;2023-12-07T11:28:35;102033.34;;;1.61;100.00
4767;BME280;2397;53.576;9.746;2023-12-07T11:31:02;102035.56;;;1.70;100.00
4767;BME280;2397;53.576;9.746;2023-12-07T11:33:29;102028.56;;;1.92;100.00
4767;BME280;2397;53.576;9.746;2023-12-07T11:38:29;102010.66;;;1.85;100.00
4767;BME280;2397;53.576;9.746;2023-12-07T11:40:56;102012.28;;;2.07;100.00
4767;BME280;2397;53.576;9.746;2023-12-07T11:46:06;102012.50;;;2.41;100.00
4767;BME280;2397;53.576;9.746;2023-12-07T11:48:33;102004.31;;;2.49;100.00
4767;BME280;2397;53.576;9.746;2023-12-07T11:51:04;101997.63;;;2.62;100.00
4767;BME280;2397;53.576;9.746;2023-12-07T11:53:33;101999.38;;;2.61;100.00
4767;BME280;2397;53.576;9.746;2023-12-07T11:56:01;101997.44;;;2.66;100.00
4767;BME280;2397;53.576;9.746;2023-12-07T11:58:29;101989.31;;;2.72;100.00
4767;BME280;2397;53.576;9.746;2023-12-07T12:01:00;101998.63;;;2.78;100.00
4767;BME280;2397;53.576;9.746;2023-12-07T12:03:28;101992.84;;;2.71;100.00
4767;BME280;2397;53.576;9.746;2023-12-07T12:05:55;101989.25;;;2.55;100.00
4767;BME280;2397;53.576;9.746;2023-12-07T12:08:23;101989.31;;;2.35;100.00
4767;BME280;2397;53.576;9.746;2023-12-07T12:10:51;101993.09;;;2.28;100.00
4767;BME280;2397;53.576;9.746;2023-12-07T12:13:19;101994.81;;;2.09;100.00
4767;BME280;2397;53.576;9.746;2023-12-07T12:15:46;101992.94;;;2.13;100.00
4767;BME280;2397;53.576;9.746;2023-12-07T12:18:13;101981.63;;;2.32;100.00
4767;BME280;2397;53.576;9.746;2023-12-07T12:20:40;101970.38;;;2.50;100.00
4767;BME280;2397;53.576;9.746;2023-12-07T12:23:07;101971.84;;;2.56;100.00
4767;BME280;2397;53.576;9.746;2023-12-07T12:25:34;101969.25;;;2.74;100.00
4767;BME280;2397;53.576;9.746;2023-12-07T12:28:04;101981.56;;;2.71;100.00
4767;BME280;2397;53.576;9.746;2023-12-07T12:30:32;101965.03;;;2.53;100.00
4767;BME280;2397;53.576;9.746;2023-12-07T12:32:59;101966.56;;;2.57;100.00
4767;BME280;2397;53.576;9.746;2023-12-07T12:35:26;101969.81;;;2.62;100.00
4767;BME280;2397;53.576;9.746;2023-12-07T12:37:53;101964.25;;;2.70;100.00
4767;BME280;2397;53.576;9.746;2023-12-07T12:40:22;101965.84;;;2.72;100.00
4767;BME280;2397;53.576;9.746;2023-12-07T12:42:51;101958.34;;;2.66;100.00
4767;BME280;2397;53.576;9.746;2023-12-07T12:45:22;101960.22;;;2.63;100.00
4767;BME280;2397;53.576;9.746;2023-12-07T12:47:49;101958.44;;;2.82;100.00
4767;BME280;2397;53.576;9.746;2023-12-07T12:50:38;101956.63;;;2.65;100.00
4767;BME280;2397;53.576;9.746;2023-12-07T12:53:09;101961.63;;;2.88;100.00
4767;BME280;2397;53.576;9.746;2023-12-07T12:55:37;101960.19;;;3.00;100.00
4767;BME280;2397;53.576;9.746;2023-12-07T12:58:06;101959.19;;;3.02;100.00
4767;BME280;2397;53.576;9.746;2023-12-07T13:00:38;101952.16;;;3.04;100.00
4767;BME280;2397;53.576;9.746;2023-12-07T13:03:05;101955.41;;;2.91;100.00
4767;BME280;2397;53.576;9.746;2023-12-07T13:05:32;101956.41;;;2.88;100.00
4767;BME280;2397;53.576;9.746;2023-12-07T13:08:01;101951.06;;;3.08;100.00
4767;BME280;2397;53.576;9.746;2023-12-07T13:10:40;101953.56;;;2.93;100.00
4767;BME280;2397;53.576;9.746;2023-12-07T13:13:07;101952.06;;;2.70;100.00
4767;BME280;2397;53.576;9.746;2023-12-07T13:15:34;101950.38;;;2.69;100.00
4767;BME280;2397;53.576;9.746;2023-12-07T13:18:01;101949.91;;;2.43;100.00
4767;BME280;2397;53.576;9.746;2023-12-07T13:20:32;101946.28;;;2.45;100.00